Aviation Digital Data Service (ADDS)

Output produced by METARs form (2010 UTC 21 September 2021)
found at http://www.aviationweather.gov/metar/data/
 
TAF MKJP 211715Z 2118/2218 16013KT 9999 FEW022 
     PROB40 
     TEMPO 2120/2202 TSRA SCT018 SCT020CB 
     BECMG 2123/2201 35004KT 
     BECMG 2214/2216 16013KT